Time;durP1;ratioP1;P1;durP2;ratioP2;P2;SDS_P1;SDS_P2;PMS_P1;PMS_P2;Temp;Humidity;BMP_temperature;BMP_pressure;BME280_temperature;BME280_humidity;BME280_pressure;Samples;Min_cycle;Max_cycle;Signal;HPM_P1;HPM_P2
2022/08/13 00:00:59;;;;;;;22.50;6.22;;;;;;;;;;1555152;92;21174;-81
2022/08/13 00:03:28;;;;;;;18.30;7.33;;;;;;;;;;1555381;92;21516;-81
2022/08/13 00:05:54;;;;;;;17.40;6.25;;;;;;;;;;1493280;96;21251;-80
2022/08/13 00:08:23;;;;;;;17.67;6.78;;;;;;;;;;1458340;98;21194;-81
2022/08/13 00:10:48;;;;;;;15.55;6.78;;;;;;;;;;1493273;94;21127;-81
2022/08/13 00:13:17;;;;;;;21.85;7.20;;;;;;;;;;1458353;98;20934;-81
2022/08/13 00:15:43;;;;;;;16.67;6.62;;;;;;;;;;1496531;94;21171;-81
2022/08/13 00:18:12;;;;;;;19.80;6.90;;;;;;;;;;1478620;94;21065;-80
2022/08/13 00:20:44;;;;;;;19.67;6.95;;;;;;;;;;1573576;90;21104;-81
2022/08/13 00:23:13;;;;;;;17.85;7.37;;;;;;;;;;1539902;93;21161;-82
2022/08/13 00:25:39;;;;;;;22.58;7.45;;;;;;;;;;1539756;93;21037;-81
2022/08/13 00:28:05;;;;;;;19.98;8.05;;;;;;;;;;1540048;92;21452;-80
2022/08/13 00:30:33;;;;;;;19.82;8.10;;;;;;;;;;1539987;93;20982;-81
2022/08/13 00:33:12;;;;;;;21.42;8.03;;;;;;;;;;1539788;93;21641;-81
2022/08/13 00:35:41;;;;;;;20.82;8.38;;;;;;;;;;1519871;92;21098;-81
2022/08/13 00:38:15;;;;;;;22.50;7.97;;;;;;;;;;1510320;95;21061;-81
2022/08/13 00:40:43;;;;;;;18.70;8.35;;;;;;;;;;1510231;95;21122;-81
2022/08/13 00:43:10;;;;;;;19.52;8.40;;;;;;;;;;1510220;95;21163;-81
2022/08/13 00:45:36;;;;;;;19.35;7.92;;;;;;;;;;1510408;95;21172;-80
2022/08/13 00:50:50;;;;;;;19.48;8.20;;;;;;;;;;1555967;90;21083;-80
2022/08/13 00:53:18;;;;;;;19.85;7.83;;;;;;;;;;1579192;90;21102;-81
2022/08/13 00:55:48;;;;;;;17.57;7.35;;;;;;;;;;1579230;90;21207;-81
2022/08/13 00:58:19;;;;;;;18.30;8.38;;;;;;;;;;1579679;90;21090;-81
2022/08/13 01:00:50;;;;;;;24.82;8.55;;;;;;;;;;1579539;90;20988;-82
2022/08/13 01:03:17;;;;;;;21.60;8.38;;;;;;;;;;1571066;90;21134;-80
2022/08/13 01:05:45;;;;;;;26.65;8.45;;;;;;;;;;1567076;91;21046;-81
2022/08/13 01:08:11;;;;;;;22.67;8.33;;;;;;;;;;1567056;91;21617;-81
2022/08/13 01:10:40;;;;;;;22.85;8.33;;;;;;;;;;1567333;91;21083;-82
2022/08/13 01:13:09;;;;;;;26.55;8.80;;;;;;;;;;1566991;91;21128;-81
2022/08/13 01:15:36;;;;;;;24.35;8.35;;;;;;;;;;1567137;91;21149;-81
2022/08/13 01:18:02;;;;;;;25.12;9.08;;;;;;;;;;1567101;91;21628;-80
2022/08/13 01:20:28;;;;;;;23.83;8.75;;;;;;;;;;1554654;91;21121;-81
2022/08/13 01:22:55;;;;;;;31.73;9.38;;;;;;;;;;1549777;92;21654;-80
2022/08/13 01:25:22;;;;;;;25.77;8.70;;;;;;;;;;1549758;92;21209;-80
2022/08/13 01:27:49;;;;;;;29.60;8.58;;;;;;;;;;1549903;92;21174;-80
2022/08/13 01:30:16;;;;;;;22.05;8.00;;;;;;;;;;1550336;86;21161;-81
2022/08/13 01:32:43;;;;;;;18.55;7.90;;;;;;;;;;1650709;86;21089;-81
2022/08/13 01:35:09;;;;;;;19.62;8.83;;;;;;;;;;1661554;85;21147;-81
2022/08/13 01:37:37;;;;;;;18.52;8.60;;;;;;;;;;1682472;85;20948;-81
2022/08/13 01:40:06;;;;;;;22.00;9.15;;;;;;;;;;1682323;85;21069;-81
2022/08/13 01:42:43;;;;;;;22.62;9.00;;;;;;;;;;1659782;85;21120;-81
2022/08/13 01:45:12;;;;;;;23.20;8.73;;;;;;;;;;1660394;85;21100;-81
2022/08/13 01:50:29;;;;;;;21.87;8.68;;;;;;;;;;1659685;85;21557;-81
2022/08/13 01:53:07;;;;;;;23.75;8.68;;;;;;;;;;1659721;85;21084;-81
2022/08/13 01:55:42;;;;;;;18.73;7.85;;;;;;;;;;1660103;85;21126;-81
2022/08/13 01:58:10;;;;;;;18.12;8.45;;;;;;;;;;1664154;85;21050;-81
2022/08/13 02:00:39;;;;;;;19.82;8.80;;;;;;;;;;1678407;84;21120;-81
2022/08/13 02:03:09;;;;;;;27.55;9.73;;;;;;;;;;1685423;84;21226;-81
2022/08/13 02:05:36;;;;;;;28.52;10.18;;;;;;;;;;1685324;84;21033;-80
2022/08/13 02:08:01;;;;;;;26.42;10.53;;;;;;;;;;1685060;84;21482;-81
2022/08/13 02:10:28;;;;;;;25.08;12.13;;;;;;;;;;1685504;84;21004;-80
2022/08/13 02:12:54;;;;;;;28.35;11.65;;;;;;;;;;1685313;84;21087;-79
2022/08/13 02:15:19;;;;;;;23.20;10.40;;;;;;;;;;1685624;84;20956;-80
2022/08/13 02:17:45;;;;;;;20.90;8.83;;;;;;;;;;1685947;84;20992;-81
2022/08/13 02:20:17;;;;;;;22.25;8.93;;;;;;;;;;1685519;84;20928;-81
2022/08/13 02:22:42;;;;;;;21.60;8.95;;;;;;;;;;1685241;85;21084;-79
2022/08/13 02:25:08;;;;;;;19.37;8.68;;;;;;;;;;1685477;84;21106;-79
2022/08/13 02:27:35;;;;;;;19.62;8.60;;;;;;;;;;1685242;84;21202;-79
2022/08/13 02:30:01;;;;;;;23.40;9.40;;;;;;;;;;1685485;84;21063;-81
2022/08/13 02:32:26;;;;;;;19.85;8.10;;;;;;;;;;1685100;84;21582;-80
2022/08/13 02:34:54;;;;;;;16.10;7.87;;;;;;;;;;1685338;84;20941;-78
2022/08/13 02:37:21;;;;;;;28.17;9.05;;;;;;;;;;1677350;85;21169;-80
2022/08/13 02:39:49;;;;;;;25.02;9.48;;;;;;;;;;1651737;86;21019;-80
2022/08/13 02:42:15;;;;;;;21.57;8.75;;;;;;;;;;1651862;86;21571;-80
2022/08/13 02:44:49;;;;;;;22.30;9.28;;;;;;;;;;1652502;85;21335;-81
2022/08/13 02:47:15;;;;;;;;;;;;;;;;;;1689756;85;21075;-80
2022/08/13 02:49:41;;;;;;;30.90;9.43;;;;;;;;;;1687690;85;21897;-80
2022/08/13 02:52:09;;;;;;;25.85;9.28;;;;;;;;;;1687088;85;20915;-80
2022/08/13 02:54:44;;;;;;;25.20;9.53;;;;;;;;;;1702431;83;21062;-79
2022/08/13 02:57:10;;;;;;;28.87;9.85;;;;;;;;;;1716966;83;22314;-80
2022/08/13 02:59:36;;;;;;;23.83;9.28;;;;;;;;;;1717194;83;20991;-80
2022/08/13 03:02:04;;;;;;;23.85;9.65;;;;;;;;;;1716941;83;21046;-81
2022/08/13 03:04:30;;;;;;;22.98;9.05;;;;;;;;;;1717175;83;21070;-84
2022/08/13 03:06:57;;;;;;;19.87;8.80;;;;;;;;;;1717259;83;21011;-81
2022/08/13 03:09:23;;;;;;;23.05;8.90;;;;;;;;;;1717290;83;21472;-80
2022/08/13 03:11:49;;;;;;;25.15;8.90;;;;;;;;;;1717708;83;20998;-80
2022/08/13 03:14:16;;;;;;;28.38;10.20;;;;;;;;;;1717482;83;21112;-81
2022/08/13 03:16:42;;;;;;;23.95;10.15;;;;;;;;;;1717491;83;21583;-81
2022/08/13 03:19:08;;;;;;;21.48;9.23;;;;;;;;;;1717504;83;21045;-80
2022/08/13 03:21:36;;;;;;;32.28;10.05;;;;;;;;;;1717146;83;21015;-80
2022/08/13 03:24:03;;;;;;;23.70;10.10;;;;;;;;;;1717399;83;21118;-80
2022/08/13 03:26:31;;;;;;;23.32;10.63;;;;;;;;;;1717252;83;21571;-80
2022/08/13 03:28:58;;;;;;;25.15;10.18;;;;;;;;;;1717011;83;21464;-80
2022/08/13 03:31:24;;;;;;;32.13;10.70;;;;;;;;;;1717329;83;20999;-78
2022/08/13 03:33:53;;;;;;;20.45;10.00;;;;;;;;;;1716877;83;21653;-81
2022/08/13 03:36:20;;;;;;;18.07;9.50;;;;;;;;;;1717473;83;21077;-79
2022/08/13 03:38:46;;;;;;;24.00;10.32;;;;;;;;;;1735047;82;21172;-80
2022/08/13 03:41:14;;;;;;;24.72;10.28;;;;;;;;;;1742991;82;21059;-80
2022/08/13 03:43:45;;;;;;;25.35;10.53;;;;;;;;;;1743079;82;21085;-81
2022/08/13 03:46:17;;;;;;;21.68;10.00;;;;;;;;;;1743349;82;21558;-79
2022/08/13 03:48:44;;;;;;;21.42;9.68;;;;;;;;;;1744504;82;21066;-74
2022/08/13 03:51:11;;;;;;;21.60;9.78;;;;;;;;;;1745472;82;21240;-74
2022/08/13 03:53:38;;;;;;;23.02;9.85;;;;;;;;;;1744929;82;21515;-80
2022/08/13 03:56:05;;;;;;;24.85;10.65;;;;;;;;;;1753205;80;20996;-79
2022/08/13 03:58:31;;;;;;;24.37;9.93;;;;;;;;;;1764429;80;20992;-80
2022/08/13 04:00:57;;;;;;;26.45;10.15;;;;;;;;;;1765999;80;21047;-80
2022/08/13 04:03:30;;;;;;;20.68;10.32;;;;;;;;;;1768085;80;21880;-82
2022/08/13 04:06:02;;;;;;;20.55;9.50;;;;;;;;;;1759079;80;21484;-79
2022/08/13 04:08:30;;;;;;;24.77;9.58;;;;;;;;;;1762718;80;21064;-81
2022/08/13 04:10:57;;;;;;;22.58;10.05;;;;;;;;;;1759084;80;21537;-79
2022/08/13 04:13:26;;;;;;;23.62;10.25;;;;;;;;;;1754922;80;21005;-82
2022/08/13 04:15:52;;;;;;;21.75;9.75;;;;;;;;;;1754139;80;21843;-82
2022/08/13 04:18:18;;;;;;;19.35;10.43;;;;;;;;;;1750842;80;21067;-80
2022/08/13 04:20:52;;;;;;;26.10;10.35;;;;;;;;;;1767233;80;20987;-80
2022/08/13 04:23:17;;;;;;;18.92;9.80;;;;;;;;;;1720835;82;21075;-82
2022/08/13 04:25:47;;;;;;;20.80;10.43;;;;;;;;;;1730145;82;21554;-80
2022/08/13 04:28:14;;;;;;;21.82;9.68;;;;;;;;;;1731866;82;21084;-79
2022/08/13 04:30:43;;;;;;;21.90;10.70;;;;;;;;;;1733224;82;20931;-81
2022/08/13 04:33:14;;;;;;;19.15;10.13;;;;;;;;;;1726957;82;21044;-82
2022/08/13 04:35:41;;;;;;;23.02;10.40;;;;;;;;;;1721919;82;21758;-80
2022/08/13 04:38:07;;;;;;;21.52;10.13;;;;;;;;;;1718358;82;21063;-81
2022/08/13 04:40:37;;;;;;;19.00;10.18;;;;;;;;;;1715499;83;21937;-81
2022/08/13 04:43:04;;;;;;;24.37;10.88;;;;;;;;;;1715441;83;21119;-81
2022/08/13 04:45:31;;;;;;;18.87;9.95;;;;;;;;;;1715368;83;21624;-85
2022/08/13 04:48:00;;;;;;;20.57;10.18;;;;;;;;;;1722804;82;21052;-79
2022/08/13 04:50:32;;;;;;;25.08;12.30;;;;;;;;;;1692284;83;21187;-81
2022/08/13 04:53:00;;;;;;;24.65;12.65;;;;;;;;;;1698206;83;21269;-82
2022/08/13 04:55:26;;;;;;;25.25;12.43;;;;;;;;;;1706099;83;21042;-82
2022/08/13 04:57:52;;;;;;;17.80;11.15;;;;;;;;;;1698340;83;21084;-81
2022/08/13 05:00:20;;;;;;;25.65;11.93;;;;;;;;;;1698689;83;21079;-81
2022/08/13 05:02:46;;;;;;;39.73;13.13;;;;;;;;;;1702564;83;21016;-81
2022/08/13 05:05:12;;;;;;;29.85;12.18;;;;;;;;;;1708009;83;21793;-81
2022/08/13 05:07:39;;;;;;;21.87;12.58;;;;;;;;;;1699848;83;20888;-82
2022/08/13 05:10:06;;;;;;;24.87;12.13;;;;;;;;;;1702749;83;21697;-81
2022/08/13 05:12:36;;;;;;;23.00;11.85;;;;;;;;;;1695123;83;21039;-82
2022/08/13 05:15:08;;;;;;;25.85;12.23;;;;;;;;;;1707263;83;21078;-81
2022/08/13 05:17:33;;;;;;;21.60;11.70;;;;;;;;;;1702644;83;21473;-82
2022/08/13 05:20:00;;;;;;;31.48;12.35;;;;;;;;;;1697802;83;21669;-77
2022/08/13 05:22:28;;;;;;;21.45;11.70;;;;;;;;;;1702791;83;21599;-79
2022/08/13 05:24:54;;;;;;;18.95;11.65;;;;;;;;;;1701620;83;21121;-80
2022/08/13 05:27:19;;;;;;;23.00;12.28;;;;;;;;;;1697953;83;20916;-80
2022/08/13 05:29:47;;;;;;;24.67;12.37;;;;;;;;;;1700363;83;39036;-80
2022/08/13 05:32:13;;;;;;;25.10;12.35;;;;;;;;;;1698840;83;21172;-78
2022/08/13 05:34:39;;;;;;;20.60;12.80;;;;;;;;;;1699153;83;20912;-79
2022/08/13 05:37:06;;;;;;;23.45;12.28;;;;;;;;;;1701085;83;21110;-81
2022/08/13 05:39:33;;;;;;;25.52;12.85;;;;;;;;;;1696662;83;21011;-81
2022/08/13 05:41:59;;;;;;;19.57;12.25;;;;;;;;;;1688782;84;22143;-81
2022/08/13 05:44:26;;;;;;;23.18;12.43;;;;;;;;;;1694524;83;21364;-81
2022/08/13 05:46:52;;;;;;;22.13;12.15;;;;;;;;;;1688357;83;21102;-82
2022/08/13 05:49:23;;;;;;;22.77;12.43;;;;;;;;;;1691179;83;20987;-81
2022/08/13 05:51:48;;;;;;;34.73;12.33;;;;;;;;;;1690329;83;21071;-82
2022/08/13 05:54:13;;;;;;;24.12;12.35;;;;;;;;;;1716345;80;21007;-81
2022/08/13 05:56:39;;;;;;;20.88;11.00;;;;;;;;;;1769394;80;20972;-81
2022/08/13 05:59:05;;;;;;;21.52;11.65;;;;;;;;;;1771975;80;20964;-80
2022/08/13 06:04:18;;;;;;;20.55;11.48;;;;;;;;;;1772850;81;20997;-80
2022/08/13 06:06:43;;;;;;;19.25;11.88;;;;;;;;;;1771910;81;21000;-81
2022/08/13 06:09:09;;;;;;;26.50;12.73;;;;;;;;;;1772029;81;20822;-80
2022/08/13 06:11:40;;;;;;;19.95;12.75;;;;;;;;;;1772097;81;20897;-77
2022/08/13 06:14:06;;;;;;;24.47;13.80;;;;;;;;;;1771755;81;21027;-78
2022/08/13 06:16:33;;;;;;;20.30;12.13;;;;;;;;;;1771856;80;20975;-78
2022/08/13 06:19:00;;;;;;;21.17;12.65;;;;;;;;;;1769016;80;21086;-78
2022/08/13 06:21:26;;;;;;;30.10;13.35;;;;;;;;;;1777900;80;21011;-77
2022/08/13 06:23:53;;;;;;;22.77;12.33;;;;;;;;;;1779787;80;21522;-77
2022/08/13 06:26:20;;;;;;;29.92;12.70;;;;;;;;;;1764264;80;20993;-78
2022/08/13 06:28:47;;;;;;;71.77;14.40;;;;;;;;;;1748548;81;21046;-78
2022/08/13 06:31:16;;;;;;;34.67;12.33;;;;;;;;;;1748775;81;21183;-77
2022/08/13 06:33:43;;;;;;;20.15;12.50;;;;;;;;;;1748479;81;21088;-77
2022/08/13 06:36:11;;;;;;;28.47;12.82;;;;;;;;;;1748657;82;20995;-78
2022/08/13 06:38:43;;;;;;;25.60;12.70;;;;;;;;;;1747239;82;21022;-78
2022/08/13 06:41:10;;;;;;;23.35;11.93;;;;;;;;;;1741251;82;21082;-77
2022/08/13 06:43:40;;;;;;;31.85;13.35;;;;;;;;;;1743215;82;21302;-78
2022/08/13 06:46:06;;;;;;;28.02;12.13;;;;;;;;;;1743107;82;20976;-77
2022/08/13 06:48:33;;;;;;;25.62;13.15;;;;;;;;;;1743409;82;21027;-78
2022/08/13 06:51:01;;;;;;;19.15;12.28;;;;;;;;;;1743371;82;21086;-78
2022/08/13 06:53:27;;;;;;;26.10;13.13;;;;;;;;;;1743381;82;20988;-78
2022/08/13 06:55:53;;;;;;;23.90;13.13;;;;;;;;;;1743749;82;21087;-82
2022/08/13 06:58:25;;;;;;;17.52;11.48;;;;;;;;;;1743369;82;20841;-77
2022/08/13 07:00:49;;;;;;;21.33;11.93;;;;;;;;;;1740032;82;21019;-77
2022/08/13 07:03:17;;;;;;;19.75;12.88;;;;;;;;;;1743424;82;21537;-78
2022/08/13 07:05:42;;;;;;;31.02;12.73;;;;;;;;;;1742962;82;21043;-77
2022/08/13 07:08:11;;;;;;;26.85;12.82;;;;;;;;;;1743451;82;21578;-77
2022/08/13 07:10:43;;;;;;;20.02;11.75;;;;;;;;;;1742991;82;21065;-77
2022/08/13 07:13:07;;;;;;;20.85;12.58;;;;;;;;;;1740104;82;21487;-77
2022/08/13 07:15:33;;;;;;;23.57;12.28;;;;;;;;;;1743719;82;20881;-78
2022/08/13 07:17:59;;;;;;;28.70;13.00;;;;;;;;;;1743550;82;20881;-77
2022/08/13 07:20:25;;;;;;;28.85;12.55;;;;;;;;;;1743493;82;21020;-77
2022/08/13 07:22:53;;;;;;;21.25;13.20;;;;;;;;;;1743093;82;20992;-78
2022/08/13 07:25:22;;;;;;;24.98;13.72;;;;;;;;;;1743065;82;20948;-77
2022/08/13 07:27:50;;;;;;;28.95;12.45;;;;;;;;;;1743135;82;22200;-77
2022/08/13 07:30:17;;;;;;;31.52;13.03;;;;;;;;;;1743154;82;21026;-77
2022/08/13 07:32:43;;;;;;;27.13;12.63;;;;;;;;;;1743175;82;21042;-78
2022/08/13 07:35:09;;;;;;;26.80;12.28;;;;;;;;;;1742941;82;20935;-77
2022/08/13 07:37:36;;;;;;;27.52;11.83;;;;;;;;;;1743018;82;21081;-78
2022/08/13 07:40:04;;;;;;;26.95;13.00;;;;;;;;;;1743054;82;21023;-77
2022/08/13 07:42:32;;;;;;;24.72;12.68;;;;;;;;;;1743566;82;21507;-77
2022/08/13 07:44:59;;;;;;;28.12;12.80;;;;;;;;;;1736256;82;22031;-77
2022/08/13 07:47:25;;;;;;;30.90;12.55;;;;;;;;;;1743643;82;20984;-77
2022/08/13 07:49:54;;;;;;;36.17;13.10;;;;;;;;;;1743562;82;21502;-77
2022/08/13 07:52:19;;;;;;;25.95;11.50;;;;;;;;;;1743385;82;21551;-77
2022/08/13 07:54:47;;;;;;;34.58;13.00;;;;;;;;;;1743555;82;21617;-77
2022/08/13 07:57:13;;;;;;;26.48;13.03;;;;;;;;;;1743431;82;20939;-76
2022/08/13 07:59:39;;;;;;;26.42;12.95;;;;;;;;;;1743255;82;20944;-77
2022/08/13 08:04:34;;;;;;;38.50;13.32;;;;;;;;;;1621317;87;21036;-77
2022/08/13 08:07:01;;;;;;;27.75;12.53;;;;;;;;;;1621177;88;21181;-76
2022/08/13 08:09:29;;;;;;;34.83;11.53;;;;;;;;;;1621635;88;21039;-75
2022/08/13 08:14:44;;;;;;;30.12;12.28;;;;;;;;;;1621317;88;21115;-77
2022/08/13 08:17:11;;;;;;;27.70;10.55;;;;;;;;;;1621479;88;20896;-77
2022/08/13 08:19:41;;;;;;;31.75;11.00;;;;;;;;;;1620995;88;21082;-77
2022/08/13 08:22:11;;;;;;;33.73;10.80;;;;;;;;;;1621853;87;21154;-77
2022/08/13 08:24:38;;;;;;;31.57;11.15;;;;;;;;;;1621087;87;21110;-77
2022/08/13 08:27:11;;;;;;;30.00;11.50;;;;;;;;;;1621527;88;21047;-77
2022/08/13 08:29:40;;;;;;;27.05;11.97;;;;;;;;;;1629962;84;21106;-79
2022/08/13 08:32:08;;;;;;;29.05;11.65;;;;;;;;;;1647732;86;21078;-79
2022/08/13 08:34:35;;;;;;;27.15;11.65;;;;;;;;;;1643308;86;21111;-78
2022/08/13 08:37:02;;;;;;;25.95;11.97;;;;;;;;;;1640046;86;21047;-77
2022/08/13 08:45:01;;;;;;;26.02;11.75;;;;;;;;;;1658123;84;21080;-78
2022/08/13 08:47:32;;;;;;;34.83;11.18;;;;;;;;;;1659222;84;21141;-78
2022/08/13 08:49:58;;;;;;;33.50;11.55;;;;;;;;;;1656513;86;21134;-78
2022/08/13 08:55:11;;;;;;;37.17;11.15;;;;;;;;;;1653001;84;21122;-78
2022/08/13 08:57:39;;;;;;;46.40;11.25;;;;;;;;;;1649248;84;21135;-78
2022/08/13 09:00:06;;;;;;;39.63;11.57;;;;;;;;;;1651704;84;21666;-79
2022/08/13 09:02:33;;;;;;;24.98;10.55;;;;;;;;;;1634347;84;21639;-78
2022/08/13 09:05:01;;;;;;;31.07;11.00;;;;;;;;;;1654615;85;21134;-80
2022/08/13 09:07:33;;;;;;;28.12;11.53;;;;;;;;;;1650656;83;21074;-79
2022/08/13 09:09:59;;;;;;;36.33;10.65;;;;;;;;;;1720348;83;21089;-78
2022/08/13 09:12:26;;;;;;;38.13;10.63;;;;;;;;;;1710469;83;21941;-79
2022/08/13 09:14:53;;;;;;;30.45;10.20;;;;;;;;;;1710556;83;21151;-79
2022/08/13 09:17:19;;;;;;;40.00;10.18;;;;;;;;;;1713136;83;21050;-80
2022/08/13 09:19:45;;;;;;;35.60;10.00;;;;;;;;;;1713204;83;21086;-79
2022/08/13 09:22:14;;;;;;;42.80;9.80;;;;;;;;;;1715495;83;21046;-80
2022/08/13 09:24:41;;;;;;;39.25;10.50;;;;;;;;;;1711468;83;21383;-78
2022/08/13 09:27:07;;;;;;;32.23;9.98;;;;;;;;;;1696388;83;21508;-79
2022/08/13 09:29:32;;;;;;;36.53;10.53;;;;;;;;;;1704201;83;20917;-79
2022/08/13 09:31:58;;;;;;;37.63;10.10;;;;;;;;;;1705414;83;20903;-79
2022/08/13 09:34:25;;;;;;;41.15;11.83;;;;;;;;;;1724586;82;20990;-79
2022/08/13 09:36:56;;;;;;;75.45;12.03;;;;;;;;;;1704555;83;22250;-78
2022/08/13 09:39:33;;;;;;;42.10;10.80;;;;;;;;;;1712505;83;21032;-80
2022/08/13 09:42:00;;;;;;;37.83;10.03;;;;;;;;;;1655905;86;21016;-79
2022/08/13 09:44:26;;;;;;;38.83;9.68;;;;;;;;;;1701739;83;21090;-78
2022/08/13 09:46:52;;;;;;;42.25;9.85;;;;;;;;;;1702224;83;22156;-79
2022/08/13 09:49:20;;;;;;;48.50;10.70;;;;;;;;;;1697888;83;21082;-79
2022/08/13 09:51:46;;;;;;;46.30;10.05;;;;;;;;;;1696587;83;21133;-79
2022/08/13 09:54:12;;;;;;;33.75;10.05;;;;;;;;;;1706907;83;20895;-81
2022/08/13 09:56:38;;;;;;;31.87;9.45;;;;;;;;;;1706797;83;21597;-80
2022/08/13 09:59:06;;;;;;;36.38;8.93;;;;;;;;;;1709422;83;21990;-78
2022/08/13 10:01:34;;;;;;;27.15;9.35;;;;;;;;;;1701009;83;21153;-81
2022/08/13 10:03:59;;;;;;;34.70;9.05;;;;;;;;;;1706102;82;21084;-79
2022/08/13 10:06:28;;;;;;;35.50;8.55;;;;;;;;;;1718793;82;21069;-77
2022/08/13 10:08:54;;;;;;;44.38;13.62;;;;;;;;;;1714258;82;21627;-80
2022/08/13 10:11:21;;;;;;;38.88;12.90;;;;;;;;;;1717528;82;21053;-77
2022/08/13 10:13:48;;;;;;;43.28;14.70;;;;;;;;;;1694890;83;21184;-78
2022/08/13 10:16:14;;;;;;;45.15;13.70;;;;;;;;;;1707262;82;21589;-78
2022/08/13 10:18:41;;;;;;;36.38;10.93;;;;;;;;;;1723877;82;20944;-78
2022/08/13 10:21:08;;;;;;;37.28;10.50;;;;;;;;;;1713493;82;21051;-74
2022/08/13 10:23:35;;;;;;;54.00;11.85;;;;;;;;;;1718828;82;21018;-79
2022/08/13 10:26:00;;;;;;;37.42;11.70;;;;;;;;;;1717611;82;21146;-79
2022/08/13 10:28:28;;;;;;;57.43;13.53;;;;;;;;;;1721588;82;21730;-78
2022/08/13 10:30:55;;;;;;;41.85;11.45;;;;;;;;;;1721880;82;21091;-78
2022/08/13 10:33:21;;;;;;;43.92;12.23;;;;;;;;;;1724308;82;21063;-78
2022/08/13 10:35:52;;;;;;;97.05;12.93;;;;;;;;;;1715641;82;21098;-80
2022/08/13 10:38:17;;;;;;;41.10;9.90;;;;;;;;;;1753948;80;20979;-80
2022/08/13 10:40:43;;;;;;;40.43;11.50;;;;;;;;;;1769370;80;21013;-79
2022/08/13 10:43:10;;;;;;;39.00;10.85;;;;;;;;;;1772503;80;21509;-79
2022/08/13 10:45:37;;;;;;;35.63;10.25;;;;;;;;;;1773732;80;21555;-79
2022/08/13 10:48:06;;;;;;;36.10;10.18;;;;;;;;;;1750580;80;21042;-79
2022/08/13 10:50:32;;;;;;;38.95;10.00;;;;;;;;;;1745325;82;20996;-79
2022/08/13 10:52:59;;;;;;;25.65;9.85;;;;;;;;;;1749640;82;20934;-79
2022/08/13 10:55:26;;;;;;;29.67;8.80;;;;;;;;;;1749586;82;21034;-80
2022/08/13 10:57:52;;;;;;;34.83;10.03;;;;;;;;;;1749836;82;21546;-80
2022/08/13 11:02:49;;;;;;;31.30;9.13;;;;;;;;;;1684558;84;21546;-80
2022/08/13 11:05:22;;;;;;;48.35;9.15;;;;;;;;;;1685086;85;21062;-79
2022/08/13 11:07:49;;;;;;;26.25;8.23;;;;;;;;;;1685236;85;21526;-80
2022/08/13 11:10:15;;;;;;;20.88;8.10;;;;;;;;;;1705919;82;21543;-80
2022/08/13 11:12:50;;;;;;;29.45;8.40;;;;;;;;;;1713753;83;21145;-79
2022/08/13 11:15:09;;;;;;;22.70;8.00;;;;;;;;;;1713538;83;21113;-80
2022/08/13 11:17:37;;;;;;;29.80;8.38;;;;;;;;;;1713896;83;21574;-80
2022/08/13 11:20:06;;;;;;;31.25;10.25;;;;;;;;;;1713752;83;21102;-79
2022/08/13 11:22:32;;;;;;;43.38;10.98;;;;;;;;;;1713232;83;21075;-78
2022/08/13 11:24:59;;;;;;;30.70;9.63;;;;;;;;;;1715455;82;21106;-80
2022/08/13 11:27:26;;;;;;;32.17;9.50;;;;;;;;;;1727149;82;21020;-79
2022/08/13 11:29:55;;;;;;;30.95;9.23;;;;;;;;;;1730153;82;21559;-80
2022/08/13 11:32:21;;;;;;;22.58;9.33;;;;;;;;;;1716140;82;21091;-80
2022/08/13 11:34:49;;;;;;;48.73;9.70;;;;;;;;;;1713555;82;20977;-81
2022/08/13 11:37:15;;;;;;;21.73;8.55;;;;;;;;;;1697600;83;21601;-79
2022/08/13 11:39:41;;;;;;;23.67;8.23;;;;;;;;;;1708540;83;21890;-82
2022/08/13 11:42:07;;;;;;;25.60;8.80;;;;;;;;;;1692476;83;20978;-78
2022/08/13 11:44:33;;;;;;;29.05;8.25;;;;;;;;;;1706221;83;20956;-79
2022/08/13 11:46:58;;;;;;;28.00;8.05;;;;;;;;;;1710429;83;21054;-78
2022/08/13 11:49:24;;;;;;;22.25;8.73;;;;;;;;;;1707254;83;20983;-79
2022/08/13 11:51:50;;;;;;;35.98;9.40;;;;;;;;;;1716505;83;21259;-79
2022/08/13 11:54:18;;;;;;;24.75;8.58;;;;;;;;;;1717821;83;20957;-78
2022/08/13 11:56:44;;;;;;;20.37;7.72;;;;;;;;;;1694649;83;21038;-78
2022/08/13 11:59:10;;;;;;;20.65;7.35;;;;;;;;;;1705412;81;21003;-80
2022/08/13 12:01:36;;;;;;;29.05;7.53;;;;;;;;;;1753265;80;20978;-80
2022/08/13 12:04:02;;;;;;;19.12;7.20;;;;;;;;;;1740508;80;21969;-78
2022/08/13 12:06:28;;;;;;;15.65;6.62;;;;;;;;;;1753643;80;21088;-79
2022/08/13 12:08:54;;;;;;;25.40;8.58;;;;;;;;;;1760304;79;20929;-82
2022/08/13 12:11:22;;;;;;;17.10;7.10;;;;;;;;;;1766602;79;20872;-80
2022/08/13 12:13:50;;;;;;;22.48;7.45;;;;;;;;;;1755872;79;21062;-80
2022/08/13 12:16:16;;;;;;;27.13;6.97;;;;;;;;;;1716885;81;21130;-78
2022/08/13 12:18:42;;;;;;;29.15;8.70;;;;;;;;;;1682021;84;21770;-78
2022/08/13 12:21:08;;;;;;;21.75;7.50;;;;;;;;;;1693431;83;20915;-78
2022/08/13 12:23:33;;;;;;;23.98;8.90;;;;;;;;;;1690753;83;20857;-78
2022/08/13 12:25:59;;;;;;;23.30;8.08;;;;;;;;;;1690304;84;21525;-79
2022/08/13 12:28:27;;;;;;;15.70;8.80;;;;;;;;;;1693728;84;21075;-79
2022/08/13 12:30:59;;;;;;;18.80;7.95;;;;;;;;;;1689209;84;21571;-80
2022/08/13 12:33:26;;;;;;;21.05;7.97;;;;;;;;;;1690181;84;22089;-80
2022/08/13 12:35:53;;;;;;;20.37;8.85;;;;;;;;;;1685674;84;21089;-78
2022/08/13 12:38:19;;;;;;;18.80;7.62;;;;;;;;;;1683887;85;21018;-77
2022/08/13 12:40:46;;;;;;;17.37;6.80;;;;;;;;;;1682762;85;21860;-77
2022/08/13 12:43:15;;;;;;;13.55;5.90;;;;;;;;;;1681945;85;21094;-77
2022/08/13 12:45:42;;;;;;;15.28;6.12;;;;;;;;;;1682466;85;21050;-78
2022/08/13 12:48:11;;;;;;;13.48;6.22;;;;;;;;;;1688523;83;21570;-75
2022/08/13 12:50:38;;;;;;;17.45;5.78;;;;;;;;;;1684663;84;21602;-76
2022/08/13 12:53:05;;;;;;;11.10;5.40;;;;;;;;;;1686637;84;21376;-76
2022/08/13 12:55:36;;;;;;;12.60;5.28;;;;;;;;;;1680100;84;21035;-80
2022/08/13 12:58:13;;;;;;;12.18;4.95;;;;;;;;;;1684941;84;21052;-80
2022/08/13 13:00:39;;;;;;;10.53;5.65;;;;;;;;;;1684186;84;21165;-78
2022/08/13 13:03:05;;;;;;;17.57;6.00;;;;;;;;;;1689693;83;21044;-80
2022/08/13 13:05:31;;;;;;;16.30;5.83;;;;;;;;;;1696392;83;21686;-79
2022/08/13 13:07:57;;;;;;;15.75;5.67;;;;;;;;;;1701544;83;21626;-80
2022/08/13 13:10:23;;;;;;;16.17;5.35;;;;;;;;;;1686948;84;21086;-78
2022/08/13 13:12:49;;;;;;;12.75;4.87;;;;;;;;;;1693513;83;20991;-79
2022/08/13 13:15:15;;;;;;;14.47;4.80;;;;;;;;;;1729986;82;21009;-78
2022/08/13 13:17:42;;;;;;;9.35;4.22;;;;;;;;;;1730201;82;21080;-79
2022/08/13 13:20:09;;;;;;;12.07;5.53;;;;;;;;;;1733052;82;21079;-78
2022/08/13 13:22:36;;;;;;;17.00;5.08;;;;;;;;;;1724676;82;21675;-79
2022/08/13 13:25:03;;;;;;;11.93;4.37;;;;;;;;;;1739867;82;21140;-78
2022/08/13 13:27:30;;;;;;;9.88;4.42;;;;;;;;;;1748783;82;21558;-78
2022/08/13 13:29:56;;;;;;;21.80;5.95;;;;;;;;;;1748345;82;21981;-78
2022/08/13 13:32:24;;;;;;;13.75;5.78;;;;;;;;;;1744038;81;20975;-79
2022/08/13 13:34:50;;;;;;;23.90;8.33;;;;;;;;;;1709106;81;21145;-78
2022/08/13 13:37:16;;;;;;;23.57;8.13;;;;;;;;;;1742935;82;20872;-77
2022/08/13 13:39:42;;;;;;;32.40;8.68;;;;;;;;;;1740355;82;21042;-77
2022/08/13 13:42:10;;;;;;;17.75;9.25;;;;;;;;;;1762463;80;21684;-77
2022/08/13 13:44:36;;;;;;;15.32;7.83;;;;;;;;;;1768798;80;21521;-79
2022/08/13 13:47:04;;;;;;;18.87;7.42;;;;;;;;;;1767997;80;20892;-78
2022/08/13 13:49:30;;;;;;;15.98;7.22;;;;;;;;;;1776735;80;20991;-79
2022/08/13 13:51:55;;;;;;;20.35;6.95;;;;;;;;;;1779092;80;20844;-78
2022/08/13 13:54:21;;;;;;;22.98;6.97;;;;;;;;;;1782463;80;21446;-77
2022/08/13 13:56:47;;;;;;;17.70;6.33;;;;;;;;;;1751618;80;20860;-79
2022/08/13 13:59:14;;;;;;;14.30;5.85;;;;;;;;;;1782111;80;21083;-80
2022/08/13 14:01:40;;;;;;;29.95;9.60;;;;;;;;;;1751627;80;21022;-78
2022/08/13 14:04:06;;;;;;;24.67;9.25;;;;;;;;;;1770291;80;21034;-79
2022/08/13 14:06:32;;;;;;;24.07;9.45;;;;;;;;;;1751519;81;21300;-78
2022/08/13 14:08:57;;;;;;;21.35;8.13;;;;;;;;;;1751287;81;20887;-77
2022/08/13 14:11:23;;;;;;;22.13;8.98;;;;;;;;;;1750896;81;21708;-79
2022/08/13 14:13:49;;;;;;;24.90;9.78;;;;;;;;;;1746132;81;20883;-79
2022/08/13 14:16:17;;;;;;;33.30;9.98;;;;;;;;;;1751551;81;21499;-78
2022/08/13 14:18:43;;;;;;;67.30;10.72;;;;;;;;;;1751212;81;21109;-79
2022/08/13 14:21:10;;;;;;;26.62;10.20;;;;;;;;;;1751531;81;21027;-78
2022/08/13 14:23:38;;;;;;;29.35;10.10;;;;;;;;;;1759611;80;21600;-79
2022/08/13 14:26:05;;;;;;;27.90;10.08;;;;;;;;;;1747433;80;21019;-80
2022/08/13 14:28:40;;;;;;;26.05;9.03;;;;;;;;;;1752739;80;20988;-83
2022/08/13 14:31:05;;;;;;;41.28;11.22;;;;;;;;;;1741288;80;21481;-79
2022/08/13 14:33:31;;;;;;;22.82;11.35;;;;;;;;;;1740090;80;21107;-78
2022/08/13 14:35:57;;;;;;;31.90;10.75;;;;;;;;;;1746071;80;21067;-77
2022/08/13 14:38:22;;;;;;;30.62;9.35;;;;;;;;;;1739093;80;20872;-80
2022/08/13 14:40:48;;;;;;;19.37;8.10;;;;;;;;;;1727910;82;21118;-77
2022/08/13 14:43:15;;;;;;;26.95;11.45;;;;;;;;;;1704664;83;21086;-78
2022/08/13 14:45:44;;;;;;;29.05;11.43;;;;;;;;;;1694624;83;21076;-79
2022/08/13 14:48:16;;;;;;;35.60;8.70;;;;;;;;;;1690237;82;21045;-78